Time;durP1;ratioP1;P1;durP2;ratioP2;P2;SDS_P1;SDS_P2;PMS_P1;PMS_P2;Temp;Humidity;BMP_temperature;BMP_pressure;BME280_temperature;BME280_humidity;BME280_pressure;Samples;Min_cycle;Max_cycle;Signal;HPM_P1;HPM_P2
2021/10/18 00:00:03;;;;;;;11.47;5.90;;;12.50;99.90;;;;;;6217618;22;20196;-91
2021/10/18 00:02:29;;;;;;;4.87;4.03;;;12.50;99.90;;;;;;6237765;22;20203;-90
2021/10/18 00:04:55;;;;;;;10.53;6.17;;;12.50;99.90;;;;;;6212478;22;20208;-90
2021/10/18 00:07:22;;;;;;;4.03;3.53;;;12.50;99.90;;;;;;6212509;22;20200;-90
2021/10/18 00:09:48;;;;;;;7.03;4.97;;;12.40;99.90;;;;;;6215652;22;20506;-90
2021/10/18 00:12:14;;;;;;;8.07;5.23;;;12.40;99.90;;;;;;6241418;22;20646;-89
2021/10/18 00:14:40;;;;;;;11.10;4.73;;;12.40;99.90;;;;;;6241409;22;20196;-89
2021/10/18 00:17:06;;;;;;;6.57;4.77;;;12.50;99.90;;;;;;6191714;22;20196;-89
2021/10/18 00:19:31;;;;;;;9.80;5.37;;;12.50;99.90;;;;;;6217286;22;20678;-90
2021/10/18 00:21:57;;;;;;;10.50;5.13;;;12.50;99.90;;;;;;6192043;22;20646;-90
2021/10/18 00:24:23;;;;;;;8.40;5.53;;;12.40;99.90;;;;;;6243170;22;20161;-89
2021/10/18 00:26:49;;;;;;;7.33;4.93;;;12.50;99.90;;;;;;6216711;22;20200;-88
2021/10/18 00:29:14;;;;;;;9.23;6.30;;;12.40;99.90;;;;;;6191800;22;20203;-89
2021/10/18 00:31:40;;;;;;;12.07;4.80;;;12.40;99.90;;;;;;6242441;22;20219;-90
2021/10/18 00:34:06;;;;;;;8.60;4.40;;;12.40;99.90;;;;;;6191146;22;20933;-89
2021/10/18 00:36:32;;;;;;;11.13;5.20;;;12.50;99.90;;;;;;6216918;22;20603;-89
2021/10/18 00:38:57;;;;;;;6.93;4.30;;;12.40;99.90;;;;;;6242107;22;20223;-90
2021/10/18 00:41:23;;;;;;;8.07;5.07;;;12.50;99.90;;;;;;6241948;22;20220;-89
2021/10/18 00:43:51;;;;;;;7.47;5.40;;;12.40;99.90;;;;;;6216659;22;20196;-89
2021/10/18 00:46:21;;;;;;;7.77;6.10;;;12.50;99.90;;;;;;6241827;22;20572;-89
2021/10/18 00:48:48;;;;;;;8.17;5.90;;;12.50;99.90;;;;;;6241992;22;20599;-90
2021/10/18 00:51:15;;;;;;;8.77;4.97;;;12.50;99.90;;;;;;6242940;22;20157;-89
2021/10/18 00:53:43;;;;;;;7.50;5.37;;;12.50;99.90;;;;;;6242008;22;20301;-89
2021/10/18 00:56:09;;;;;;;8.27;5.07;;;12.50;99.90;;;;;;6241386;22;20199;-90
2021/10/18 00:58:35;;;;;;;14.13;5.83;;;12.50;99.90;;;;;;6241820;22;20558;-91
2021/10/18 01:01:02;;;;;;;8.97;6.40;;;12.50;99.90;;;;;;6266749;22;20275;-90
2021/10/18 01:03:28;;;;;;;8.00;4.87;;;12.50;99.90;;;;;;6240887;22;20157;-90
2021/10/18 01:05:54;;;;;;;6.63;5.13;;;12.50;99.90;;;;;;6234899;22;20945;-89
2021/10/18 01:08:20;;;;;;;10.20;6.17;;;12.40;99.90;;;;;;6235770;22;20245;-90
2021/10/18 01:10:46;;;;;;;5.73;2.93;;;12.50;99.90;;;;;;6237653;22;20513;-89
2021/10/18 01:13:12;;;;;;;9.23;5.13;;;12.50;99.90;;;;;;6236756;22;20591;-89
2021/10/18 01:15:38;;;;;;;8.00;5.27;;;12.50;99.90;;;;;;6237165;22;20176;-90
2021/10/18 01:18:04;;;;;;;10.67;6.07;;;12.50;99.90;;;;;;6212375;23;20573;-89
2021/10/18 01:20:38;;;;;;;10.90;6.00;;;12.50;99.90;;;;;;6211821;23;20272;-90
2021/10/18 01:23:07;;;;;;;7.77;5.20;;;12.40;99.90;;;;;;6237694;22;20197;-89
2021/10/18 01:25:33;;;;;;;6.83;4.37;;;12.40;99.90;;;;;;6236390;22;20200;-89
2021/10/18 01:27:59;;;;;;;8.27;5.60;;;12.40;99.90;;;;;;6236688;22;20928;-89
2021/10/18 01:30:26;;;;;;;12.07;5.33;;;12.40;99.90;;;;;;6237903;22;20165;-89
2021/10/18 01:32:52;;;;;;;6.60;5.37;;;12.40;99.90;;;;;;6237419;22;20189;-89
2021/10/18 01:35:18;;;;;;;7.27;5.67;;;12.40;99.90;;;;;;6237746;22;20213;-90
2021/10/18 01:37:44;;;;;;;7.33;4.67;;;12.40;99.90;;;;;;6211708;23;20199;-89
2021/10/18 01:40:14;;;;;;;6.10;5.13;;;12.40;99.90;;;;;;6236827;22;20213;-88
2021/10/18 01:42:41;;;;;;;9.47;5.80;;;12.40;99.90;;;;;;6236032;22;20166;-88
2021/10/18 01:45:09;;;;;;;16.00;7.17;;;12.40;99.90;;;;;;6238193;22;20189;-89
2021/10/18 01:47:35;;;;;;;8.23;6.33;;;12.40;99.90;;;;;;6211782;23;20194;-88
2021/10/18 01:50:09;;;;;;;11.90;6.53;;;12.40;99.90;;;;;;6185868;23;20215;-88
2021/10/18 01:52:35;;;;;;;9.50;5.67;;;12.40;99.90;;;;;;6236422;22;20192;-90
2021/10/18 01:55:01;;;;;;;8.93;5.70;;;12.40;99.90;;;;;;6235897;22;20199;-89
2021/10/18 01:57:27;;;;;;;10.27;6.03;;;12.30;99.90;;;;;;6238271;22;20192;-88
2021/10/18 01:59:53;;;;;;;12.07;5.33;;;12.30;99.90;;;;;;6210895;23;20212;-89
2021/10/18 02:02:18;;;;;;;9.00;6.50;;;12.30;99.90;;;;;;6210571;23;20326;-89
2021/10/18 02:04:44;;;;;;;9.53;6.40;;;12.30;99.90;;;;;;6185785;23;20287;-89
2021/10/18 02:07:10;;;;;;;12.67;6.13;;;12.30;99.90;;;;;;6235980;22;20193;-89
2021/10/18 02:09:35;;;;;;;19.43;6.00;;;12.30;99.90;;;;;;6237709;22;20162;-89
2021/10/18 02:12:01;;;;;;;9.67;6.77;;;12.20;99.90;;;;;;6236695;23;20169;-89
2021/10/18 02:14:27;;;;;;;9.73;6.27;;;12.20;99.90;;;;;;6235392;22;20836;-89
2021/10/18 02:16:53;;;;;;;8.90;6.70;;;12.30;99.90;;;;;;6211007;23;20197;-89
2021/10/18 02:19:18;;;;;;;6.10;5.43;;;12.20;99.90;;;;;;6185216;23;20641;-89
2021/10/18 02:21:44;;;;;;;6.27;5.63;;;12.30;99.90;;;;;;6186426;22;20158;-88
2021/10/18 02:24:10;;;;;;;9.13;5.87;;;12.30;99.90;;;;;;6186529;23;20215;-89
2021/10/18 02:26:35;;;;;;;9.73;5.57;;;12.30;99.90;;;;;;6237278;22;20220;-90
2021/10/18 02:29:01;;;;;;;9.70;6.53;;;12.20;99.90;;;;;;6237299;22;20205;-89
2021/10/18 02:31:27;;;;;;;8.43;5.23;;;12.30;99.90;;;;;;6237002;22;20193;-88
2021/10/18 02:33:53;;;;;;;13.73;6.77;;;12.20;99.90;;;;;;6237308;22;20201;-89
2021/10/18 02:36:18;;;;;;;8.13;6.13;;;12.30;99.90;;;;;;6186086;23;20249;-88
2021/10/18 02:38:44;;;;;;;6.27;5.00;;;12.30;99.90;;;;;;6236192;22;20292;-89
2021/10/18 02:41:10;;;;;;;8.77;6.17;;;12.30;99.90;;;;;;6235445;22;20887;-88
2021/10/18 02:43:36;;;;;;;10.97;5.73;;;12.30;99.90;;;;;;6235621;22;20628;-89
2021/10/18 02:46:01;;;;;;;7.77;5.10;;;12.30;99.90;;;;;;6236320;22;20272;-89
2021/10/18 02:48:27;;;;;;;8.37;5.97;;;12.30;99.90;;;;;;6208070;23;20158;-89
2021/10/18 02:50:53;;;;;;;8.60;6.17;;;12.30;99.90;;;;;;6207577;23;20247;-89
2021/10/18 02:53:21;;;;;;;12.67;6.50;;;12.30;99.90;;;;;;6232542;22;20220;-89
2021/10/18 02:55:47;;;;;;;7.80;5.17;;;12.30;99.90;;;;;;6234324;22;20198;-89
2021/10/18 02:58:13;;;;;;;8.37;6.10;;;12.30;99.90;;;;;;6234403;22;20247;-89
2021/10/18 03:00:39;;;;;;;9.60;6.30;;;12.30;99.90;;;;;;6210582;22;20220;-90
2021/10/18 03:03:06;;;;;;;9.33;5.33;;;12.30;99.90;;;;;;6209415;23;20165;-88
2021/10/18 03:05:32;;;;;;;8.67;5.47;;;12.30;99.90;;;;;;6253800;22;20269;-89
2021/10/18 03:07:58;;;;;;;9.07;4.83;;;12.30;99.90;;;;;;6240848;22;20200;-89
2021/10/18 03:10:24;;;;;;;11.67;6.57;;;12.30;99.90;;;;;;6240906;22;20199;-87
2021/10/18 03:12:50;;;;;;;9.90;5.80;;;12.30;99.90;;;;;;6267520;22;20163;-89
2021/10/18 03:15:16;;;;;;;9.63;5.90;;;12.30;99.90;;;;;;6268143;22;20157;-88
2021/10/18 03:17:42;;;;;;;11.70;6.77;;;12.30;99.90;;;;;;6240518;22;20200;-89
2021/10/18 03:20:09;;;;;;;9.43;6.73;;;12.30;99.90;;;;;;6240563;22;20212;-89
2021/10/18 03:22:35;;;;;;;9.57;6.83;;;12.30;99.90;;;;;;6240739;22;20200;-88
2021/10/18 03:25:01;;;;;;;11.30;7.07;;;12.20;99.90;;;;;;6241194;22;20243;-89
2021/10/18 03:27:27;;;;;;;10.77;6.63;;;12.20;99.90;;;;;;6189783;22;20152;-89
2021/10/18 03:29:53;;;;;;;8.70;6.13;;;12.10;99.90;;;;;;6240458;22;20196;-89
2021/10/18 03:32:19;;;;;;;12.00;6.23;;;12.10;99.90;;;;;;6215895;22;20189;-89
2021/10/18 03:34:44;;;;;;;6.90;5.97;;;12.10;99.90;;;;;;6242014;22;20200;-88
2021/10/18 03:37:10;;;;;;;13.03;7.60;;;12.10;99.90;;;;;;6238668;22;20184;-89
2021/10/18 03:39:36;;;;;;;9.37;7.37;;;12.00;99.90;;;;;;6215345;22;20216;-87
2021/10/18 03:42:02;;;;;;;13.40;7.77;;;11.90;99.90;;;;;;6270067;22;20538;-86
2021/10/18 03:44:28;;;;;;;17.73;6.70;;;11.90;99.90;;;;;;6269536;22;20199;-89
2021/10/18 03:46:54;;;;;;;15.07;5.47;;;11.90;99.90;;;;;;6192170;22;20197;-87
2021/10/18 03:49:20;;;;;;;10.07;5.93;;;11.90;99.90;;;;;;6241791;22;20196;-89
2021/10/18 03:51:46;;;;;;;11.50;6.53;;;11.90;99.90;;;;;;6217657;22;20156;-88
2021/10/18 03:54:12;;;;;;;10.10;6.60;;;12.00;99.90;;;;;;6242414;22;20165;-88
2021/10/18 03:56:37;;;;;;;11.40;7.73;;;12.00;99.90;;;;;;6242799;22;20189;-89
2021/10/18 03:59:03;;;;;;;10.57;6.53;;;12.00;99.90;;;;;;6242022;22;20279;-89
2021/10/18 04:01:29;;;;;;;10.63;7.03;;;12.10;99.90;;;;;;6242573;22;20934;-89
2021/10/18 04:03:55;;;;;;;13.17;8.97;;;12.10;99.90;;;;;;6242389;22;20185;-89
2021/10/18 04:06:21;;;;;;;10.33;7.07;;;12.00;99.90;;;;;;6242388;22;20200;-88
2021/10/18 04:08:49;;;;;;;10.47;7.17;;;12.00;99.90;;;;;;6192038;22;20202;-89
2021/10/18 04:11:15;;;;;;;8.07;6.93;;;12.10;99.90;;;;;;6242481;22;20272;-89
2021/10/18 04:13:41;;;;;;;10.27;6.63;;;12.10;99.90;;;;;;6268699;22;20277;-88
2021/10/18 04:16:06;;;;;;;8.30;6.47;;;12.10;99.90;;;;;;6269137;22;20200;-89
2021/10/18 04:18:32;;;;;;;9.17;6.30;;;12.10;99.90;;;;;;6217181;22;20226;-89
2021/10/18 04:20:59;;;;;;;10.17;5.80;;;12.00;99.90;;;;;;6269001;22;20647;-88
2021/10/18 04:23:26;;;;;;;7.63;6.13;;;12.00;99.90;;;;;;6241971;22;20208;-91
2021/10/18 04:25:52;;;;;;;9.77;6.50;;;12.00;99.90;;;;;;6242208;22;20196;-90
2021/10/18 04:28:18;;;;;;;6.47;5.70;;;12.00;99.90;;;;;;6269288;22;20254;-89
2021/10/18 04:30:45;;;;;;;10.47;5.10;;;12.00;99.90;;;;;;6242340;22;20505;-90
2021/10/18 04:33:11;;;;;;;10.17;6.67;;;12.00;99.90;;;;;;6240293;22;20256;-88
2021/10/18 04:35:37;;;;;;;14.17;6.83;;;11.90;99.90;;;;;;6264231;22;20262;-90
2021/10/18 04:38:03;;;;;;;10.40;6.07;;;11.90;99.90;;;;;;6263386;22;20199;-89
2021/10/18 04:40:30;;;;;;;13.67;6.50;;;11.90;99.90;;;;;;6266093;22;20196;-90
2021/10/18 04:42:56;;;;;;;9.17;5.87;;;11.90;99.90;;;;;;6239421;22;20268;-89
2021/10/18 04:45:22;;;;;;;13.20;7.23;;;11.90;99.90;;;;;;6240350;22;20630;-90
2021/10/18 04:47:50;;;;;;;9.93;6.27;;;11.90;99.90;;;;;;6265637;22;20489;-90
2021/10/18 04:50:20;;;;;;;12.63;6.27;;;11.90;99.90;;;;;;6266489;22;20283;-90
2021/10/18 04:52:46;;;;;;;9.40;6.80;;;11.80;99.90;;;;;;6266229;22;20192;-89
2021/10/18 04:55:12;;;;;;;11.57;6.50;;;11.80;99.90;;;;;;6239211;22;20635;-90
2021/10/18 04:57:52;;;;;;;8.90;5.70;;;11.80;99.90;;;;;;6265574;22;20164;-90
2021/10/18 05:00:19;;;;;;;6.70;5.57;;;11.80;99.90;;;;;;6239839;22;20199;-90
2021/10/18 05:02:44;;;;;;;7.17;5.87;;;11.70;99.90;;;;;;6239419;22;20207;-90
2021/10/18 05:05:10;;;;;;;8.07;6.23;;;11.60;99.90;;;;;;6188495;22;20208;-90
2021/10/18 05:07:36;;;;;;;9.60;6.33;;;11.60;99.90;;;;;;6213043;22;20205;-90
2021/10/18 05:10:02;;;;;;;17.03;7.20;;;11.60;99.90;;;;;;6266479;22;20247;-90
2021/10/18 05:12:28;;;;;;;10.37;6.47;;;11.60;99.90;;;;;;6240269;22;20630;-89
2021/10/18 05:14:54;;;;;;;9.87;6.33;;;11.60;99.90;;;;;;6213247;22;20192;-89
2021/10/18 05:17:19;;;;;;;8.60;6.70;;;11.60;99.90;;;;;;6238526;22;20257;-89
2021/10/18 05:19:45;;;;;;;12.63;6.40;;;11.50;99.90;;;;;;6238693;22;20212;-89
2021/10/18 05:22:11;;;;;;;11.43;6.67;;;11.50;99.90;;;;;;6239625;22;20276;-89
2021/10/18 05:24:36;;;;;;;10.03;6.37;;;11.50;99.90;;;;;;6265494;22;20183;-89
2021/10/18 05:27:02;;;;;;;7.30;6.20;;;11.50;99.90;;;;;;6266903;22;20477;-89
2021/10/18 05:29:28;;;;;;;8.77;5.90;;;11.50;99.90;;;;;;6238147;22;20228;-89
2021/10/18 05:31:53;;;;;;;11.70;6.97;;;11.50;99.90;;;;;;6213900;22;21030;-87
2021/10/18 05:34:19;;;;;;;8.90;6.60;;;11.50;99.90;;;;;;6238902;22;20207;-89
2021/10/18 05:36:45;;;;;;;10.00;7.07;;;11.50;99.90;;;;;;6214014;22;20661;-90
2021/10/18 05:39:10;;;;;;;9.33;6.43;;;11.50;99.90;;;;;;6239687;22;20184;-90
2021/10/18 05:41:37;;;;;;;10.10;6.47;;;11.50;99.90;;;;;;6213821;22;20239;-89
2021/10/18 05:44:04;;;;;;;10.00;6.60;;;11.40;99.90;;;;;;6213555;22;20218;-90
2021/10/18 05:46:29;;;;;;;9.53;6.63;;;11.40;99.90;;;;;;6213858;22;20267;-90
2021/10/18 05:48:55;;;;;;;8.37;6.27;;;11.40;99.90;;;;;;6265098;22;20208;-90
2021/10/18 05:51:21;;;;;;;7.93;6.47;;;11.40;99.90;;;;;;6214701;22;20165;-90
2021/10/18 05:53:47;;;;;;;9.10;6.73;;;11.40;99.90;;;;;;6213270;22;20270;-91
2021/10/18 05:56:13;;;;;;;8.93;6.80;;;11.40;99.90;;;;;;6187992;22;20192;-90
2021/10/18 05:58:38;;;;;;;14.20;6.70;;;11.40;99.90;;;;;;6265595;22;20273;-91
2021/10/18 06:01:04;;;;;;;10.07;6.27;;;11.40;99.90;;;;;;6188879;22;20184;-90
2021/10/18 06:03:31;;;;;;;9.87;6.23;;;11.40;99.90;;;;;;6214512;22;20164;-90
2021/10/18 06:05:57;;;;;;;10.83;6.93;;;11.40;99.90;;;;;;6265782;22;20302;-90
2021/10/18 06:08:22;;;;;;;9.00;6.80;;;11.40;99.90;;;;;;6213532;22;20979;-90
2021/10/18 06:10:48;;;;;;;11.07;6.17;;;11.50;99.90;;;;;;6239068;22;20279;-90
2021/10/18 06:13:14;;;;;;;10.80;7.07;;;11.50;99.90;;;;;;6237991;22;20271;-90
2021/10/18 06:15:40;;;;;;;11.50;6.77;;;11.50;99.90;;;;;;6265257;22;20218;-90
2021/10/18 06:18:11;;;;;;;12.43;7.37;;;11.50;99.90;;;;;;6189384;22;20160;-89
2021/10/18 06:20:39;;;;;;;8.63;6.70;;;11.60;99.90;;;;;;6264988;22;20541;-91
2021/10/18 06:23:05;;;;;;;7.57;5.57;;;11.60;99.90;;;;;;6213593;22;20579;-90
2021/10/18 06:25:32;;;;;;;8.37;5.97;;;11.70;99.90;;;;;;6238052;22;20205;-89
2021/10/18 06:27:58;;;;;;;15.83;6.93;;;11.60;99.90;;;;;;6213066;22;20189;-89
2021/10/18 06:30:26;;;;;;;11.53;6.83;;;11.70;99.90;;;;;;6213407;22;20184;-90
2021/10/18 06:32:53;;;;;;;5.37;3.67;;;11.60;99.90;;;;;;6265288;22;20196;-90
2021/10/18 06:35:19;;;;;;;14.43;7.53;;;11.60;99.90;;;;;;6188324;22;20197;-89
2021/10/18 06:37:45;;;;;;;12.03;6.17;;;11.60;99.90;;;;;;6238805;22;20196;-90
2021/10/18 06:40:11;;;;;;;9.90;6.70;;;11.70;99.90;;;;;;6212969;22;20206;-90
2021/10/18 06:42:38;;;;;;;9.03;6.13;;;11.60;99.90;;;;;;6213573;22;20339;-90
2021/10/18 06:45:05;;;;;;;8.53;6.07;;;11.60;99.90;;;;;;6213761;22;20657;-89
2021/10/18 06:47:31;;;;;;;8.37;6.27;;;11.60;99.90;;;;;;6213475;22;20258;-88
2021/10/18 06:49:58;;;;;;;8.60;6.17;;;11.70;99.90;;;;;;6217975;22;20192;-96
2021/10/18 06:52:27;;;;;;;13.13;6.43;;;11.70;99.90;;;;;;6248209;22;20192;-87
2021/10/18 06:54:53;;;;;;;9.40;6.43;;;11.60;99.90;;;;;;6256456;22;20226;-90
2021/10/18 06:57:19;;;;;;;7.07;5.70;;;11.60;99.90;;;;;;6266117;22;20247;-91
2021/10/18 06:59:45;;;;;;;10.77;6.57;;;11.70;99.90;;;;;;6238942;22;20547;-91
2021/10/18 07:02:10;;;;;;;11.73;7.17;;;11.60;99.90;;;;;;6240935;22;20207;-89
2021/10/18 07:04:38;;;;;;;11.10;6.63;;;11.60;99.90;;;;;;6215499;22;20367;-90
2021/10/18 07:07:04;;;;;;;10.73;5.70;;;11.60;99.90;;;;;;6215852;22;20223;-91
2021/10/18 07:09:30;;;;;;;12.93;6.27;;;11.70;99.90;;;;;;6192041;22;20165;-90
2021/10/18 07:11:55;;;;;;;11.60;7.50;;;11.70;99.90;;;;;;6240699;22;20208;-90
2021/10/18 07:14:22;;;;;;;11.37;7.00;;;11.70;99.90;;;;;;6242898;22;20200;-91
2021/10/18 07:16:47;;;;;;;9.80;6.43;;;11.80;99.90;;;;;;6240889;22;20189;-90
2021/10/18 07:19:13;;;;;;;8.13;4.93;;;11.80;99.90;;;;;;6240326;22;20821;-89
2021/10/18 07:21:41;;;;;;;12.03;7.47;;;11.90;99.90;;;;;;6239726;22;20160;-91
2021/10/18 07:24:07;;;;;;;9.73;6.43;;;11.90;99.90;;;;;;6216273;22;20197;-91
2021/10/18 07:26:33;;;;;;;12.07;7.53;;;11.90;99.90;;;;;;6215043;22;20254;-91
2021/10/18 07:28:59;;;;;;;14.33;7.90;;;11.90;99.90;;;;;;6267084;22;20581;-92
2021/10/18 07:31:25;;;;;;;8.33;5.83;;;12.00;99.90;;;;;;6215421;22;20185;-91
2021/10/18 07:33:51;;;;;;;13.30;7.43;;;12.10;99.90;;;;;;6240703;22;20171;-91
2021/10/18 07:36:24;;;;;;;10.23;7.20;;;12.00;99.90;;;;;;6268608;22;20172;-91
2021/10/18 07:38:51;;;;;;;11.27;6.27;;;12.00;99.90;;;;;;6218472;22;20752;-91
2021/10/18 07:41:18;;;;;;;10.30;6.97;;;12.10;99.90;;;;;;6240620;22;20219;-91
2021/10/18 07:43:44;;;;;;;11.47;6.07;;;12.10;99.90;;;;;;6240570;22;20222;-92
2021/10/18 07:46:10;;;;;;;13.63;7.10;;;12.20;99.90;;;;;;6240513;22;20272;-91
2021/10/18 07:48:35;;;;;;;13.97;7.20;;;12.20;99.90;;;;;;6240545;22;20443;-92
2021/10/18 07:51:02;;;;;;;11.27;6.37;;;12.10;99.90;;;;;;6191188;22;20160;-93
2021/10/18 07:53:28;;;;;;;10.50;6.80;;;12.10;99.90;;;;;;6266731;22;20266;-91
2021/10/18 07:55:54;;;;;;;8.37;5.67;;;12.20;99.90;;;;;;6240141;22;20202;-91
2021/10/18 07:58:23;;;;;;;12.13;7.87;;;12.20;99.90;;;;;;6240134;22;20525;-91
2021/10/18 08:00:49;;;;;;;10.90;7.00;;;12.20;99.90;;;;;;6266658;22;20207;-91
2021/10/18 08:03:14;;;;;;;9.67;7.17;;;12.20;99.90;;;;;;6190676;22;20164;-91
2021/10/18 08:05:40;;;;;;;11.27;7.60;;;12.30;99.90;;;;;;6234141;22;20213;-91
2021/10/18 08:08:09;;;;;;;12.83;7.30;;;12.30;99.90;;;;;;6209968;23;20409;-91
2021/10/18 08:10:36;;;;;;;8.17;6.40;;;12.30;99.90;;;;;;6235555;22;20407;-91
2021/10/18 08:13:02;;;;;;;9.60;6.73;;;12.30;99.90;;;;;;6234569;22;20218;-92
2021/10/18 08:15:30;;;;;;;10.77;6.53;;;12.40;99.90;;;;;;6235695;23;20161;-92
2021/10/18 08:17:57;;;;;;;10.50;6.60;;;12.50;99.90;;;;;;6210045;23;20203;-91
2021/10/18 08:20:23;;;;;;;15.23;7.70;;;12.60;99.90;;;;;;6234872;22;20213;-91
2021/10/18 08:22:49;;;;;;;12.37;6.50;;;12.70;99.90;;;;;;6209358;22;20199;-90
2021/10/18 08:25:16;;;;;;;10.90;6.97;;;12.80;99.90;;;;;;6235242;22;20264;-91
2021/10/18 08:27:42;;;;;;;10.30;7.27;;;13.00;99.90;;;;;;6236456;22;20165;-92
2021/10/18 08:30:10;;;;;;;9.07;7.10;;;13.00;99.90;;;;;;6209906;23;20165;-92
2021/10/18 08:32:36;;;;;;;14.30;6.97;;;13.10;99.90;;;;;;6234519;22;20574;-92
2021/10/18 08:35:06;;;;;;;11.70;6.33;;;13.30;99.90;;;;;;6234715;22;20193;-92
2021/10/18 08:40:17;;;;;;;10.67;7.30;;;13.40;99.90;;;;;;6234692;22;20197;-92
2021/10/18 08:42:54;;;;;;;15.13;6.63;;;13.30;99.90;;;;;;6235652;22;20219;-92
2021/10/18 08:45:20;;;;;;;11.27;6.60;;;13.20;99.90;;;;;;6235414;23;20149;-92
2021/10/18 08:47:48;;;;;;;9.23;6.20;;;13.40;99.90;;;;;;6209452;23;20208;-92
2021/10/18 08:50:14;;;;;;;11.20;6.87;;;13.40;99.90;;;;;;6235784;22;20231;-92
2021/10/18 08:52:42;;;;;;;9.67;6.13;;;13.30;99.90;;;;;;6234614;22;20699;-92
2021/10/18 08:55:09;;;;;;;9.93;7.27;;;13.40;99.90;;;;;;6237027;22;20273;-91
2021/10/18 08:57:35;;;;;;;15.13;7.60;;;13.40;99.90;;;;;;6234371;22;20165;-93
2021/10/18 09:00:01;;;;;;;13.40;6.77;;;13.40;99.90;;;;;;6236126;23;20285;-93
2021/10/18 09:02:38;;;;;;;10.30;7.00;;;13.50;99.90;;;;;;6234897;22;20193;-93
2021/10/18 09:05:09;;;;;;;13.30;7.73;;;13.40;99.90;;;;;;6209423;23;20526;-92
2021/10/18 09:07:38;;;;;;;13.37;7.00;;;13.60;99.90;;;;;;6236045;22;20193;-91
2021/10/18 09:10:12;;;;;;;10.93;6.33;;;13.70;99.90;;;;;;6234644;22;20201;-91
2021/10/18 09:12:41;;;;;;;13.57;7.33;;;13.70;99.90;;;;;;6233784;22;20188;-92
2021/10/18 09:15:17;;;;;;;11.07;6.67;;;13.60;99.90;;;;;;6235755;23;20164;-93
2021/10/18 09:17:42;;;;;;;10.67;5.73;;;13.60;99.90;;;;;;6249463;22;20216;-91
2021/10/18 09:20:24;;;;;;;13.63;7.90;;;13.70;99.90;;;;;;6250643;22;20209;-92
2021/10/18 09:22:53;;;;;;;13.90;7.43;;;13.60;99.90;;;;;;6234013;22;20564;-92
2021/10/18 09:25:35;;;;;;;9.43;6.50;;;13.60;99.90;;;;;;6236122;22;20300;-92
2021/10/18 09:28:28;;;;;;;13.60;6.43;;;13.80;99.90;;;;;;6236022;22;20201;-94
2021/10/18 09:30:55;;;;;;;10.80;7.20;;;13.70;99.90;;;;;;6232723;22;20212;-91
2021/10/18 09:36:24;;;;;;;11.17;6.10;;;13.60;99.90;;;;;;6232877;22;20187;-92
2021/10/18 09:38:49;;;;;;;11.17;8.47;;;13.80;99.90;;;;;;6235494;22;20276;-92
2021/10/18 09:41:24;;;;;;;10.00;6.60;;;13.90;99.90;;;;;;6208226;23;20217;-92
2021/10/18 09:43:58;;;;;;;9.93;7.13;;;14.20;99.90;;;;;;6234335;22;20196;-94
2021/10/18 09:46:35;;;;;;;19.17;8.20;;;14.20;99.90;;;;;;6235289;22;20534;-92
2021/10/18 10:53:52;;;;;;;15.23;7.40;;;14.30;99.90;;;;;;6265381;22;20735;-95
2021/10/18 10:56:23;;;;;;;10.47;6.33;;;14.30;99.90;;;;;;6240854;22;20258;-93
2021/10/18 10:58:59;;;;;;;11.67;7.07;;;14.30;99.90;;;;;;6239538;22;20212;-94
2021/10/18 11:01:47;;;;;;;9.57;6.40;;;14.60;99.90;;;;;;6266069;22;20203;-93
2021/10/18 11:04:31;;;;;;;8.03;5.70;;;15.20;99.90;;;;;;6239195;22;20202;-94
2021/10/18 11:07:04;;;;;;;11.40;7.13;;;15.10;99.90;;;;;;6238251;22;20254;-92
2021/10/18 11:09:45;;;;;;;13.73;7.80;;;15.30;99.90;;;;;;6239101;22;20163;-93
2021/10/18 11:12:17;;;;;;;9.77;6.30;;;15.10;99.90;;;;;;6265739;22;20181;-91
2021/10/18 11:15:03;;;;;;;11.73;6.20;;;14.80;99.90;;;;;;6264586;22;20261;-93
2021/10/18 11:17:38;;;;;;;9.97;5.97;;;14.80;99.90;;;;;;6264100;22;20291;-92
2021/10/18 11:20:16;;;;;;;12.17;6.70;;;14.50;99.90;;;;;;6264604;22;20212;-92
2021/10/18 11:22:47;;;;;;;12.50;6.83;;;14.40;99.90;;;;;;6265043;22;20216;-93
2021/10/18 11:25:31;;;;;;;11.60;6.93;;;14.50;99.90;;;;;;6265135;22;20246;-92
2021/10/18 11:28:03;;;;;;;11.33;7.67;;;14.30;99.90;;;;;;6238393;22;20219;-94
2021/10/18 11:30:31;;;;;;;12.17;6.70;;;14.40;99.90;;;;;;6239245;22;20247;-93
2021/10/18 11:33:06;;;;;;;12.60;7.00;;;14.40;99.90;;;;;;6238189;22;20181;-90
2021/10/18 11:35:34;;;;;;;11.23;6.77;;;14.30;99.90;;;;;;6265894;22;20216;-94
2021/10/18 11:38:06;;;;;;;13.13;7.13;;;14.40;99.90;;;;;;6213312;22;20196;-95
2021/10/18 11:40:47;;;;;;;15.97;8.50;;;14.40;99.90;;;;;;6238022;22;20228;-96
2021/10/18 11:43:19;;;;;;;16.43;8.70;;;14.50;99.90;;;;;;6239798;22;20258;-92
2021/10/18 11:45:46;;;;;;;13.67;7.53;;;14.50;99.90;;;;;;6238833;22;20177;-93
2021/10/18 11:48:18;;;;;;;12.27;7.83;;;14.80;99.90;;;;;;6269469;22;20192;-94
2021/10/18 11:50:46;;;;;;;19.43;9.00;;;14.80;99.90;;;;;;6271960;22;20256;-93
2021/10/18 11:53:20;;;;;;;14.30;7.70;;;15.10;99.90;;;;;;6262760;22;20180;-94
2021/10/18 11:55:55;;;;;;;13.17;7.27;;;15.50;99.90;;;;;;6270495;22;20270;-93
2021/10/18 11:58:42;;;;;;;11.97;6.70;;;15.40;99.90;;;;;;6241034;22;20188;-94
2021/10/18 12:01:16;;;;;;;10.90;6.27;;;15.20;99.90;;;;;;6241188;22;20238;-92
2021/10/18 12:03:41;;;;;;;12.33;7.40;;;15.10;99.90;;;;;;6241219;22;20137;-92
2021/10/18 12:06:10;;;;;;;13.97;7.17;;;15.10;99.90;;;;;;6269162;22;20203;-93
2021/10/18 12:08:38;;;;;;;12.93;7.57;;;15.10;99.90;;;;;;6241613;22;20201;-96
2021/10/18 12:11:10;;;;;;;11.53;7.00;;;15.00;99.90;;;;;;6241464;22;20652;-95
2021/10/18 12:13:37;;;;;;;13.93;6.80;;;14.90;99.90;;;;;;6241285;22;20390;-94
2021/10/18 12:16:03;;;;;;;9.67;5.60;;;15.00;99.90;;;;;;6267741;22;20192;-92
2021/10/18 12:18:44;;;;;;;10.30;6.43;;;15.00;99.90;;;;;;6271928;22;20216;-95
2021/10/18 12:21:31;;;;;;;9.70;6.13;;;14.80;99.90;;;;;;6243943;22;20500;-92
2021/10/18 12:24:00;;;;;;;13.27;7.37;;;14.80;99.90;;;;;;6268933;22;20267;-92
2021/10/18 12:26:28;;;;;;;13.17;6.60;;;14.60;99.90;;;;;;6241419;22;20267;-91
2021/10/18 12:29:09;;;;;;;10.77;6.80;;;14.60;99.90;;;;;;6268346;22;20281;-92
2021/10/18 12:31:45;;;;;;;14.53;7.23;;;14.70;99.90;;;;;;6241425;22;20196;-91
2021/10/18 12:34:14;;;;;;;10.63;7.17;;;14.70;99.90;;;;;;6241502;22;20710;-92
2021/10/18 12:36:55;;;;;;;16.43;6.73;;;14.90;99.90;;;;;;6241275;22;20180;-91
2021/10/18 12:39:47;;;;;;;10.07;5.80;;;15.10;99.90;;;;;;6242147;22;20540;-92
2021/10/18 12:42:25;;;;;;;11.47;5.73;;;15.20;99.90;;;;;;6241579;22;20213;-94
2021/10/18 12:45:07;;;;;;;9.70;6.23;;;15.20;99.90;;;;;;6268256;22;20520;-93
2021/10/18 12:47:36;;;;;;;13.80;6.67;;;15.30;99.90;;;;;;6268590;22;20275;-91
2021/10/18 12:50:12;;;;;;;10.63;5.67;;;15.30;99.90;;;;;;6216189;22;20211;-91
2021/10/18 12:52:40;;;;;;;13.33;6.40;;;15.30;99.90;;;;;;6240769;22;20274;-92
2021/10/18 12:55:33;;;;;;;11.97;6.90;;;15.20;99.90;;;;;;6240853;22;20220;-91
2021/10/18 12:58:00;;;;;;;11.63;6.10;;;15.20;99.90;;;;;;6233500;22;20254;-92
2021/10/18 13:00:32;;;;;;;17.47;6.07;;;15.30;99.90;;;;;;6241600;22;20188;-93
2021/10/18 13:03:06;;;;;;;16.03;6.00;;;15.30;99.90;;;;;;6267663;22;20226;-91
2021/10/18 13:05:37;;;;;;;13.13;7.10;;;15.20;99.90;;;;;;6267624;22;20240;-92
2021/10/18 13:08:02;;;;;;;14.73;7.20;;;15.10;99.90;;;;;;6216578;22;20192;-92
2021/10/18 13:10:34;;;;;;;9.70;5.63;;;15.10;99.90;;;;;;6190680;22;20194;-92
2021/10/18 13:13:03;;;;;;;10.97;7.20;;;15.00;99.90;;;;;;6241034;22;20188;-93
2021/10/18 13:15:29;;;;;;;10.77;6.43;;;14.90;99.90;;;;;;6241533;22;20165;-92
2021/10/18 13:17:56;;;;;;;14.00;7.27;;;14.90;99.90;;;;;;6266829;22;20285;-90
2021/10/18 13:20:23;;;;;;;10.67;6.03;;;14.80;99.90;;;;;;6242326;22;20204;-91
2021/10/18 13:22:52;;;;;;;10.70;5.73;;;14.60;99.90;;;;;;6267679;22;20197;-94
2021/10/18 13:25:19;;;;;;;12.17;7.07;;;14.60;99.90;;;;;;6240754;22;20185;-92
2021/10/18 13:27:45;;;;;;;8.93;6.33;;;14.60;99.90;;;;;;6240649;22;20191;-93
2021/10/18 13:30:12;;;;;;;15.47;7.00;;;14.50;99.90;;;;;;6268126;22;20244;-89
2021/10/18 13:32:39;;;;;;;11.80;7.17;;;14.60;99.90;;;;;;6190342;22;20239;-93
2021/10/18 13:35:06;;;;;;;9.30;6.07;;;14.50;99.90;;;;;;6240021;22;20192;-93
2021/10/18 13:37:32;;;;;;;10.43;6.17;;;14.50;99.90;;;;;;6215869;22;20275;-94
2021/10/18 13:39:58;;;;;;;11.63;5.70;;;14.60;99.90;;;;;;6239927;22;20231;-93
2021/10/18 13:42:24;;;;;;;10.63;6.13;;;14.60;99.90;;;;;;6267947;22;20161;-96
2021/10/18 13:44:50;;;;;;;7.60;6.00;;;14.60;99.90;;;;;;6215409;22;20772;-93
2021/10/18 13:47:16;;;;;;;11.77;5.40;;;14.70;99.90;;;;;;6240974;22;20266;-91
2021/10/18 13:49:41;;;;;;;10.67;6.27;;;14.70;99.90;;;;;;6216242;22;20199;-94
2021/10/18 13:52:07;;;;;;;13.17;7.23;;;14.70;99.90;;;;;;6215063;22;20488;-94
2021/10/18 13:54:34;;;;;;;10.60;5.70;;;14.70;99.90;;;;;;6215663;22;20192;-93